Time;durP1;ratioP1;P1;durP2;ratioP2;P2;SDS_P1;SDS_P2;PMS_P1;PMS_P2;Temp;Humidity;BMP_temperature;BMP_pressure;BME280_temperature;BME280_humidity;BME280_pressure;Samples;Min_cycle;Max_cycle;Signal;HPM_P1;HPM_P2
2022/05/19 00:01:27;;;;;;;73.55;48.00;;;16.40;99.90;;;;;;4996124;28;20033;-68
2022/05/19 00:03:53;;;;;;;76.97;49.47;;;16.40;99.90;;;;;;4990523;28;20060;-69
2022/05/19 00:06:19;;;;;;;73.68;48.15;;;16.30;99.90;;;;;;5012249;28;20269;-67
2022/05/19 00:08:45;;;;;;;76.70;49.97;;;16.30;99.90;;;;;;4979072;28;20058;-67
2022/05/19 00:11:15;;;;;;;73.30;49.80;;;16.30;99.90;;;;;;4995196;28;20479;-68
2022/05/19 00:13:41;;;;;;;72.65;50.60;;;16.20;99.90;;;;;;5012014;28;20042;-67
2022/05/19 00:16:08;;;;;;;69.97;47.40;;;16.10;99.90;;;;;;4995329;28;20429;-67
2022/05/19 00:18:35;;;;;;;75.22;48.33;;;16.20;99.90;;;;;;4995157;28;20052;-69
2022/05/19 00:21:01;;;;;;;72.88;49.53;;;16.10;99.90;;;;;;4979415;28;20046;-67
2022/05/19 00:23:27;;;;;;;75.15;49.70;;;16.00;99.90;;;;;;4979302;28;20053;-68
2022/05/19 00:25:53;;;;;;;73.80;49.33;;;16.00;99.90;;;;;;4995698;28;20049;-68
2022/05/19 00:28:19;;;;;;;72.80;49.97;;;16.00;99.90;;;;;;4995157;28;20049;-68
2022/05/19 00:30:45;;;;;;;73.95;50.03;;;15.90;99.90;;;;;;4995607;28;20045;-67
2022/05/19 00:33:12;;;;;;;69.32;49.17;;;15.90;99.90;;;;;;4978828;28;20125;-67
2022/05/19 00:35:39;;;;;;;86.10;52.30;;;16.00;99.90;;;;;;4995276;28;20487;-68
2022/05/19 00:38:06;;;;;;;84.45;53.80;;;15.90;99.90;;;;;;5011277;28;20124;-67
2022/05/19 00:40:32;;;;;;;75.60;51.80;;;15.90;99.90;;;;;;4994981;28;20046;-68
2022/05/19 00:42:58;;;;;;;78.18;52.28;;;16.00;99.90;;;;;;4995033;28;20459;-68
2022/05/19 00:45:27;;;;;;;78.35;52.53;;;16.00;99.90;;;;;;4995054;28;20081;-68
2022/05/19 00:48:00;;;;;;;85.20;54.47;;;16.00;99.90;;;;;;4987552;28;20058;-68
2022/05/19 00:50:35;;;;;;;85.22;56.58;;;16.00;99.90;;;;;;4976302;28;20049;-67
2022/05/19 00:53:15;;;;;;;80.25;53.30;;;16.10;99.90;;;;;;4975936;28;20043;-68
2022/05/19 00:55:45;;;;;;;78.18;54.63;;;16.20;99.90;;;;;;4975137;28;20078;-67
2022/05/19 00:58:26;;;;;;;83.60;54.17;;;16.30;99.90;;;;;;4975344;28;20069;-67
2022/05/19 01:00:53;;;;;;;83.85;57.97;;;16.30;99.90;;;;;;4994788;28;20108;-70
2022/05/19 01:03:20;;;;;;;82.10;54.42;;;16.30;99.90;;;;;;4978578;28;20046;-67
2022/05/19 01:06:00;;;;;;;80.22;54.30;;;16.30;99.90;;;;;;4966677;28;20050;-68
2022/05/19 01:08:36;;;;;;;77.72;54.70;;;16.30;99.90;;;;;;4977767;28;20046;-68
2022/05/19 01:11:05;;;;;;;84.80;55.80;;;16.30;99.90;;;;;;4995323;28;20483;-68
2022/05/19 01:13:31;;;;;;;82.85;54.88;;;16.30;99.90;;;;;;5010673;28;20124;-68
2022/05/19 01:15:59;;;;;;;83.38;55.47;;;16.30;99.90;;;;;;4984679;28;20077;-68
2022/05/19 01:18:28;;;;;;;89.68;56.95;;;16.30;99.90;;;;;;4975779;28;20038;-68
2022/05/19 01:20:55;;;;;;;83.15;57.90;;;16.20;99.90;;;;;;4975266;28;20422;-68
2022/05/19 01:23:33;;;;;;;84.95;58.08;;;16.20;99.90;;;;;;4975802;28;20104;-68
2022/05/19 01:26:22;;;;;;;86.25;60.25;;;16.20;99.90;;;;;;4958874;28;20049;-68
2022/05/19 01:28:48;;;;;;;90.80;61.10;;;16.20;99.90;;;;;;4975319;28;20050;-67
2022/05/19 01:31:37;;;;;;;88.25;60.55;;;16.20;99.90;;;;;;4975414;28;20061;-68
2022/05/19 01:34:05;;;;;;;84.32;56.30;;;16.20;99.90;;;;;;4975108;28;20035;-68
2022/05/19 01:36:32;;;;;;;85.60;59.67;;;16.20;99.90;;;;;;4987894;28;20501;-68
2022/05/19 01:39:03;;;;;;;84.93;59.42;;;16.20;99.90;;;;;;4958819;28;20056;-69
2022/05/19 01:41:43;;;;;;;79.50;59.47;;;16.20;99.90;;;;;;4994063;28;20107;-69
2022/05/19 01:44:34;;;;;;;79.43;57.07;;;16.20;99.90;;;;;;4993877;28;20137;-69
2022/05/19 01:47:28;;;;;;;90.03;56.17;;;16.20;99.90;;;;;;4993718;28;20053;-69
2022/05/19 01:50:23;;;;;;;73.45;50.80;;;16.10;99.90;;;;;;4966554;28;20137;-67
2022/05/19 01:53:17;;;;;;;80.57;53.55;;;16.20;99.90;;;;;;4994108;28;20498;-67
2022/05/19 01:55:57;;;;;;;83.15;51.75;;;16.30;99.90;;;;;;5010527;28;20050;-67
2022/05/19 01:58:48;;;;;;;83.97;53.30;;;16.30;99.90;;;;;;5010061;28;20430;-67
2022/05/19 02:01:18;;;;;;;83.60;52.15;;;16.30;99.90;;;;;;4993778;28;20050;-68
2022/05/19 02:03:50;;;;;;;78.85;50.92;;;16.30;99.90;;;;;;4994055;28;20046;-67
2022/05/19 02:06:31;;;;;;;83.85;51.85;;;16.30;99.90;;;;;;4983245;28;20054;-67
2022/05/19 02:09:04;;;;;;;82.75;51.10;;;16.30;99.90;;;;;;4978084;28;20376;-67
2022/05/19 02:11:34;;;;;;;83.45;53.92;;;16.30;99.90;;;;;;4962829;28;20046;-68
2022/05/19 02:14:08;;;;;;;85.87;56.90;;;16.30;99.90;;;;;;4978477;28;20046;-69
2022/05/19 02:16:34;;;;;;;80.70;54.42;;;16.30;99.90;;;;;;4978623;28;20046;-68
2022/05/19 02:19:01;;;;;;;83.68;52.17;;;16.30;99.90;;;;;;4978419;28;20053;-68
2022/05/19 02:21:28;;;;;;;81.88;52.92;;;16.30;99.90;;;;;;4962547;28;20064;-69
2022/05/19 02:23:57;;;;;;;78.20;51.20;;;16.20;99.90;;;;;;4978820;28;20070;-67
2022/05/19 02:26:23;;;;;;;86.70;53.35;;;16.30;99.90;;;;;;4978558;28;20042;-68
2022/05/19 02:28:55;;;;;;;78.80;51.63;;;16.20;99.90;;;;;;4994985;28;20038;-67
2022/05/19 02:31:22;;;;;;;83.00;55.15;;;16.20;99.90;;;;;;4962856;28;20133;-68
2022/05/19 02:33:48;;;;;;;84.22;56.13;;;16.20;99.90;;;;;;4962258;28;20133;-67
2022/05/19 02:36:14;;;;;;;94.60;59.53;;;16.20;99.90;;;;;;4978148;28;20082;-68
2022/05/19 02:38:40;;;;;;;89.57;57.75;;;16.10;99.90;;;;;;4977771;28;20050;-67
2022/05/19 02:41:07;;;;;;;85.25;56.42;;;16.10;99.90;;;;;;4994754;28;20038;-68
2022/05/19 02:43:33;;;;;;;94.38;59.15;;;16.10;99.90;;;;;;4989410;28;20121;-69
2022/05/19 02:45:59;;;;;;;90.43;59.80;;;16.10;99.90;;;;;;4997310;28;20042;-68
2022/05/19 02:48:25;;;;;;;83.28;58.83;;;16.10;99.90;;;;;;4985487;28;20399;-68
2022/05/19 02:50:52;;;;;;;87.70;57.72;;;16.10;99.90;;;;;;4962418;28;20045;-68
2022/05/19 02:53:19;;;;;;;92.20;60.67;;;16.10;99.90;;;;;;4978128;28;20038;-68
2022/05/19 02:55:46;;;;;;;96.43;62.55;;;16.10;99.90;;;;;;4961907;28;20050;-67
2022/05/19 02:58:14;;;;;;;91.05;60.60;;;16.10;99.90;;;;;;4977499;28;20050;-67
2022/05/19 03:00:47;;;;;;;89.70;60.28;;;16.10;99.90;;;;;;4977771;28;20076;-68
2022/05/19 03:03:13;;;;;;;96.60;61.13;;;16.00;99.90;;;;;;4977529;28;20054;-67
2022/05/19 03:05:40;;;;;;;93.22;61.70;;;16.10;99.90;;;;;;4983793;28;20486;-67
2022/05/19 03:08:08;;;;;;;98.78;63.55;;;16.00;99.90;;;;;;4967844;28;20044;-68
2022/05/19 03:10:36;;;;;;;98.45;61.55;;;16.10;99.90;;;;;;4974594;28;20499;-68
2022/05/19 03:13:03;;;;;;;100.28;62.00;;;16.10;99.90;;;;;;4977502;28;20074;-67
2022/05/19 03:15:29;;;;;;;97.25;61.40;;;16.10;99.90;;;;;;4984169;28;20081;-68
2022/05/19 03:17:56;;;;;;;98.18;62.80;;;16.00;99.90;;;;;;4995652;28;20135;-67
2022/05/19 03:20:22;;;;;;;102.40;64.32;;;16.10;99.90;;;;;;4996137;28;20081;-69
2022/05/19 03:22:48;;;;;;;93.32;61.20;;;16.10;99.90;;;;;;4995926;28;20052;-68
2022/05/19 03:25:15;;;;;;;101.45;64.38;;;16.00;99.90;;;;;;4996542;28;20425;-68
2022/05/19 03:27:42;;;;;;;98.95;63.08;;;16.00;99.90;;;;;;4995017;28;20099;-68
2022/05/19 03:30:12;;;;;;;103.57;65.47;;;16.10;99.90;;;;;;4996222;28;20434;-68
2022/05/19 03:32:39;;;;;;;94.57;62.00;;;16.10;99.90;;;;;;4981795;28;20068;-67
2022/05/19 03:35:06;;;;;;;107.28;66.18;;;16.00;99.90;;;;;;4976902;28;20042;-67
2022/05/19 03:37:32;;;;;;;93.88;61.55;;;16.10;99.90;;;;;;4975538;28;20077;-67
2022/05/19 03:39:58;;;;;;;95.78;60.92;;;16.10;99.90;;;;;;4976536;28;20042;-68
2022/05/19 03:42:24;;;;;;;93.07;61.33;;;16.10;99.90;;;;;;4979494;28;20052;-67
2022/05/19 03:44:50;;;;;;;95.03;59.55;;;16.10;99.90;;;;;;4996496;28;20133;-67
2022/05/19 03:47:16;;;;;;;102.30;65.50;;;16.20;99.90;;;;;;4965216;28;20157;-69
2022/05/19 03:49:43;;;;;;;92.05;59.67;;;16.20;99.90;;;;;;4960186;28;20447;-68
2022/05/19 03:52:09;;;;;;;97.10;61.10;;;16.20;99.90;;;;;;4960519;28;20487;-68
2022/05/19 03:54:35;;;;;;;103.03;65.32;;;16.20;99.90;;;;;;4977154;28;20101;-68
2022/05/19 03:57:01;;;;;;;101.65;64.57;;;16.30;99.90;;;;;;4976504;28;20080;-67
2022/05/19 03:59:27;;;;;;;103.90;63.80;;;16.30;99.90;;;;;;4976313;28;20046;-67
2022/05/19 04:01:53;;;;;;;101.35;64.80;;;16.30;99.90;;;;;;4976646;28;20658;-68
2022/05/19 04:04:19;;;;;;;97.38;63.60;;;16.30;99.90;;;;;;4977023;28;20097;-68
2022/05/19 04:06:45;;;;;;;91.38;61.00;;;16.30;99.90;;;;;;4960676;28;20521;-68
2022/05/19 04:09:11;;;;;;;97.90;62.88;;;16.40;99.90;;;;;;4975990;28;20096;-67
2022/05/19 04:11:37;;;;;;;95.35;60.92;;;16.40;99.90;;;;;;4976619;28;20048;-68
2022/05/19 04:14:03;;;;;;;89.20;60.53;;;16.40;99.90;;;;;;4976415;28;20038;-68
2022/05/19 04:16:29;;;;;;;101.78;65.43;;;16.50;99.90;;;;;;4977141;28;20050;-68
2022/05/19 04:18:55;;;;;;;104.13;65.00;;;16.50;99.90;;;;;;4959976;28;20054;-68
2022/05/19 04:21:21;;;;;;;96.68;63.38;;;16.50;99.90;;;;;;4976827;28;20096;-67
2022/05/19 04:23:47;;;;;;;98.18;64.78;;;16.50;99.90;;;;;;4976367;28;20078;-67
2022/05/19 04:26:13;;;;;;;95.05;63.13;;;16.50;99.90;;;;;;4960708;28;20049;-68
2022/05/19 04:28:39;;;;;;;95.63;61.90;;;16.50;99.90;;;;;;4959817;28;20475;-67
2022/05/19 04:31:05;;;;;;;90.95;60.70;;;16.60;99.90;;;;;;4976073;28;20491;-68
2022/05/19 04:33:31;;;;;;;88.32;58.75;;;16.60;99.90;;;;;;4960137;28;20483;-67
2022/05/19 04:35:57;;;;;;;97.68;62.13;;;16.60;99.90;;;;;;4976049;28;20475;-67
2022/05/19 04:38:24;;;;;;;89.40;60.00;;;16.60;99.90;;;;;;4975660;28;20471;-69
2022/05/19 04:40:50;;;;;;;93.43;61.53;;;16.70;99.90;;;;;;4960136;28;20042;-68
2022/05/19 04:43:22;;;;;;;92.18;60.60;;;16.70;99.90;;;;;;4985095;28;20188;-67
2022/05/19 04:45:53;;;;;;;84.32;57.88;;;16.70;99.90;;;;;;4979041;28;20081;-69
2022/05/19 04:48:20;;;;;;;84.70;57.00;;;16.80;99.90;;;;;;4994290;28;20085;-68
2022/05/19 04:50:50;;;;;;;89.55;59.15;;;16.80;99.90;;;;;;4994349;28;20050;-69
2022/05/19 04:53:16;;;;;;;94.28;58.47;;;16.90;99.90;;;;;;4962913;28;20050;-67
2022/05/19 04:55:42;;;;;;;92.63;61.08;;;17.00;99.90;;;;;;4978583;28;20184;-67
2022/05/19 04:58:08;;;;;;;82.57;57.05;;;17.10;99.90;;;;;;4994897;28;20194;-69
2022/05/19 05:00:36;;;;;;;91.95;60.20;;;17.20;99.90;;;;;;4963332;28;20434;-68
2022/05/19 05:03:02;;;;;;;83.72;56.30;;;17.30;99.90;;;;;;4963009;28;20050;-68
2022/05/19 05:05:28;;;;;;;88.05;58.00;;;17.40;99.90;;;;;;4977384;28;20101;-68
2022/05/19 05:07:54;;;;;;;86.03;57.33;;;17.60;99.90;;;;;;4975145;28;20648;-67
2022/05/19 05:10:20;;;;;;;83.53;57.75;;;17.70;99.90;;;;;;4976041;28;20076;-68
2022/05/19 05:12:46;;;;;;;89.63;59.92;;;17.80;99.90;;;;;;4975420;28;20510;-68
2022/05/19 05:15:12;;;;;;;84.60;56.65;;;17.80;99.90;;;;;;4975483;28;20050;-70
2022/05/19 05:17:38;;;;;;;82.63;57.78;;;17.90;99.90;;;;;;4975196;28;20050;-68
2022/05/19 05:20:06;;;;;;;79.22;56.20;;;17.90;99.90;;;;;;4993168;28;20505;-68
2022/05/19 05:22:35;;;;;;;79.00;57.33;;;17.90;99.90;;;;;;4983704;28;20050;-68
2022/05/19 05:25:07;;;;;;;79.63;56.25;;;18.00;99.90;;;;;;4975199;28;20046;-68
2022/05/19 05:27:33;;;;;;;77.47;55.58;;;17.90;99.90;;;;;;4974984;28;20050;-69
2022/05/19 05:29:59;;;;;;;74.38;53.30;;;17.90;99.90;;;;;;4975792;28;20546;-68
2022/05/19 05:32:25;;;;;;;75.00;53.67;;;17.90;99.90;;;;;;4959127;28;20467;-68
2022/05/19 05:34:51;;;;;;;77.05;55.40;;;18.00;99.90;;;;;;4959496;28;20475;-68
2022/05/19 05:37:23;;;;;;;79.43;55.00;;;18.00;99.90;;;;;;4975334;28;20178;-68
2022/05/19 05:39:49;;;;;;;78.03;55.08;;;18.00;99.90;;;;;;4959338;28;20502;-68
2022/05/19 05:42:15;;;;;;;77.75;53.20;;;18.10;99.90;;;;;;4979756;28;20046;-67
2022/05/19 05:44:41;;;;;;;76.30;53.78;;;18.10;99.90;;;;;;5000775;28;20179;-68
2022/05/19 05:47:07;;;;;;;77.03;54.00;;;18.20;99.90;;;;;;4955307;28;20050;-70
2022/05/19 05:49:33;;;;;;;75.15;53.65;;;18.30;99.90;;;;;;4981586;28;20046;-68
2022/05/19 05:51:59;;;;;;;73.90;51.95;;;18.40;99.90;;;;;;4965791;28;20042;-69
2022/05/19 05:54:25;;;;;;;75.07;52.80;;;18.50;99.90;;;;;;5004666;28;20054;-67
2022/05/19 05:56:52;;;;;;;69.45;51.28;;;18.40;99.90;;;;;;4971354;28;20493;-68
2022/05/19 05:59:18;;;;;;;72.68;51.80;;;18.50;99.90;;;;;;4981416;28;20054;-68
2022/05/19 06:01:45;;;;;;;75.18;52.53;;;18.60;99.90;;;;;;4965524;28;20084;-68
2022/05/19 06:04:11;;;;;;;73.05;51.42;;;18.50;99.90;;;;;;4971921;28;20041;-69
2022/05/19 06:06:37;;;;;;;66.55;48.90;;;18.60;99.90;;;;;;4970558;28;20340;-69
2022/05/19 06:09:03;;;;;;;65.80;45.33;;;18.60;99.90;;;;;;4981202;28;20053;-69
2022/05/19 06:11:30;;;;;;;69.45;47.30;;;18.60;99.90;;;;;;4981611;28;20050;-68
2022/05/19 06:13:57;;;;;;;56.58;43.65;;;18.80;99.90;;;;;;4981594;28;20125;-70
2022/05/19 06:16:23;;;;;;;60.50;44.55;;;19.00;99.90;;;;;;4981571;28;20049;-69
2022/05/19 06:18:49;;;;;;;46.95;34.17;;;19.30;99.90;;;;;;4980779;28;20042;-68
2022/05/19 06:21:15;;;;;;;45.67;34.17;;;19.60;99.90;;;;;;4981289;28;20140;-69
2022/05/19 06:23:41;;;;;;;42.85;32.63;;;20.00;99.90;;;;;;4980887;28;20038;-68
2022/05/19 06:26:08;;;;;;;43.38;31.42;;;20.30;99.90;;;;;;4981290;28;20425;-69
2022/05/19 06:28:34;;;;;;;36.80;27.35;;;20.50;99.90;;;;;;4981262;28;20054;-69
2022/05/19 06:31:01;;;;;;;36.17;28.85;;;20.60;99.90;;;;;;4982945;28;20096;-68
2022/05/19 06:33:28;;;;;;;38.95;28.42;;;20.80;99.90;;;;;;5000159;28;20046;-69
2022/05/19 06:35:55;;;;;;;42.03;28.55;;;21.00;99.90;;;;;;4985784;28;20042;-69
2022/05/19 06:38:22;;;;;;;40.95;27.45;;;21.10;99.90;;;;;;4965076;28;20077;-69
2022/05/19 06:40:48;;;;;;;37.55;26.13;;;21.10;99.90;;;;;;4981004;28;20050;-68
2022/05/19 06:43:14;;;;;;;35.35;25.15;;;20.90;99.90;;;;;;4989620;28;20493;-69
2022/05/19 06:45:43;;;;;;;35.40;25.85;;;20.80;99.90;;;;;;4997659;28;20472;-68
2022/05/19 06:48:10;;;;;;;30.25;24.25;;;20.80;99.90;;;;;;4980270;28;20050;-68
2022/05/19 06:50:36;;;;;;;32.22;23.65;;;21.00;99.90;;;;;;4965269;28;20073;-69
2022/05/19 06:53:03;;;;;;;33.95;24.70;;;21.10;99.90;;;;;;4978291;28;20101;-69
2022/05/19 06:55:33;;;;;;;35.35;25.77;;;21.20;99.90;;;;;;4978470;28;20046;-69
2022/05/19 06:58:00;;;;;;;33.00;24.63;;;21.40;99.90;;;;;;4977658;28;20046;-69
2022/05/19 07:00:28;;;;;;;34.75;24.27;;;21.60;99.90;;;;;;4978181;28;20051;-68
2022/05/19 07:02:58;;;;;;;31.83;24.38;;;21.70;99.90;;;;;;4962367;28;20431;-68
2022/05/19 07:05:28;;;;;;;32.58;23.75;;;21.80;99.90;;;;;;4961721;28;20046;-70
2022/05/19 07:07:54;;;;;;;25.33;20.43;;;22.00;99.90;;;;;;4961346;28;20116;-68
2022/05/19 07:10:22;;;;;;;28.58;21.60;;;22.20;99.90;;;;;;4961839;28;20615;-68
2022/05/19 07:12:49;;;;;;;28.23;20.55;;;22.30;99.90;;;;;;4977735;28;20491;-68
2022/05/19 07:15:17;;;;;;;26.80;18.45;;;22.50;99.90;;;;;;4978174;28;20545;-69
2022/05/19 07:17:43;;;;;;;26.42;20.35;;;22.60;99.90;;;;;;4960929;28;20133;-70
2022/05/19 07:22:54;;;;;;;26.38;20.02;;;22.60;99.90;;;;;;4978097;28;20050;-68
2022/05/19 07:25:21;;;;;;;25.58;20.08;;;22.70;99.90;;;;;;4961484;28;20050;-69
2022/05/19 07:27:48;;;;;;;27.08;21.27;;;22.70;99.90;;;;;;4961643;28;20046;-69
2022/05/19 07:30:14;;;;;;;29.38;21.30;;;22.70;99.90;;;;;;4977260;28;20042;-69
2022/05/19 07:32:41;;;;;;;29.05;22.83;;;22.80;99.90;;;;;;4960804;28;20104;-70
2022/05/19 07:35:09;;;;;;;27.75;22.45;;;22.80;99.90;;;;;;4977671;28;20042;-69
2022/05/19 07:37:35;;;;;;;27.73;23.08;;;22.80;99.90;;;;;;4961107;28;20048;-69
2022/05/19 07:40:01;;;;;;;28.65;23.63;;;22.70;99.90;;;;;;4976961;28;20049;-69
2022/05/19 07:42:27;;;;;;;28.92;21.83;;;22.60;99.90;;;;;;4963783;28;20054;-69
2022/05/19 07:44:54;;;;;;;28.65;21.15;;;22.50;99.90;;;;;;4980291;28;20497;-70
2022/05/19 07:47:20;;;;;;;28.70;21.65;;;22.30;99.90;;;;;;4964421;28;20100;-69
2022/05/19 07:49:47;;;;;;;23.25;20.55;;;22.20;99.90;;;;;;4993203;28;20090;-68
2022/05/19 07:52:13;;;;;;;21.08;18.80;;;22.20;99.90;;;;;;4977332;28;20084;-69
2022/05/19 07:54:39;;;;;;;23.63;19.65;;;22.20;99.90;;;;;;4976826;28;20042;-69
2022/05/19 07:57:06;;;;;;;23.85;18.88;;;22.10;99.90;;;;;;4976155;28;20054;-68
2022/05/19 07:59:32;;;;;;;27.10;19.25;;;21.90;99.90;;;;;;4992931;28;20050;-69
2022/05/19 08:01:58;;;;;;;24.52;20.25;;;21.90;99.90;;;;;;4976478;28;20034;-68
2022/05/19 08:04:25;;;;;;;24.33;20.25;;;21.80;99.90;;;;;;4976324;28;20085;-69
2022/05/19 08:06:52;;;;;;;24.42;20.27;;;21.70;99.90;;;;;;4976818;28;20459;-69
2022/05/19 08:12:05;;;;;;;26.83;20.75;;;21.50;99.90;;;;;;4976646;28;20043;-69
2022/05/19 08:17:18;;;;;;;26.55;22.70;;;21.20;99.90;;;;;;4995198;28;20092;-69
2022/05/19 08:19:45;;;;;;;30.05;23.05;;;20.90;99.90;;;;;;4979134;28;20042;-69
2022/05/19 08:22:12;;;;;;;31.17;23.90;;;20.80;99.90;;;;;;4995140;28;20037;-69
2022/05/19 08:24:38;;;;;;;32.03;24.98;;;20.70;99.90;;;;;;4995173;28;20042;-71
2022/05/19 08:27:06;;;;;;;31.23;25.00;;;20.70;99.90;;;;;;4978738;28;20096;-70
2022/05/19 08:29:33;;;;;;;34.58;25.48;;;20.60;99.90;;;;;;4995448;28;20081;-71
2022/05/19 08:31:59;;;;;;;35.10;27.75;;;20.50;99.90;;;;;;4994935;28;20124;-68
2022/05/19 08:34:25;;;;;;;40.33;29.55;;;20.50;99.90;;;;;;4995392;28;20132;-68
2022/05/19 08:36:51;;;;;;;38.05;30.75;;;20.50;99.90;;;;;;4978630;28;20474;-72
2022/05/19 08:39:18;;;;;;;39.22;30.38;;;20.70;99.90;;;;;;4994415;28;20116;-68
2022/05/19 08:42:03;;;;;;;35.08;29.17;;;20.70;99.90;;;;;;4978379;28;20398;-68
2022/05/19 08:44:34;;;;;;;36.00;28.98;;;20.70;99.90;;;;;;4989745;28;20125;-70
2022/05/19 08:47:02;;;;;;;39.60;31.67;;;20.70;99.90;;;;;;4975687;28;20084;-69
2022/05/19 08:49:45;;;;;;;38.88;33.17;;;20.80;99.90;;;;;;4998172;28;20473;-68
2022/05/19 08:52:16;;;;;;;41.83;32.60;;;20.90;99.90;;;;;;5011722;28;20056;-68
2022/05/19 08:54:48;;;;;;;40.88;32.67;;;20.90;99.90;;;;;;4994933;28;20046;-68
2022/05/19 08:57:24;;;;;;;37.78;31.75;;;20.90;99.90;;;;;;4993615;28;20045;-69
2022/05/19 09:00:14;;;;;;;39.15;31.00;;;20.90;99.90;;;;;;4994755;28;20137;-68
2022/05/19 09:02:45;;;;;;;39.67;31.88;;;21.00;99.90;;;;;;5011950;28;20545;-68
2022/05/19 09:05:38;;;;;;;38.92;32.75;;;21.00;99.90;;;;;;4994746;28;20073;-68
2022/05/19 09:08:24;;;;;;;37.22;29.55;;;21.10;99.90;;;;;;4994266;28;20049;-69
2022/05/19 09:11:03;;;;;;;36.70;30.00;;;21.20;99.90;;;;;;4993943;28;20479;-68
2022/05/19 09:13:39;;;;;;;34.88;29.60;;;21.20;99.90;;;;;;4978190;28;20041;-69
2022/05/19 09:16:19;;;;;;;40.63;31.38;;;21.30;99.90;;;;;;4977468;28;20038;-69
2022/05/19 09:18:50;;;;;;;42.30;32.80;;;21.40;99.90;;;;;;4993969;28;20052;-68
2022/05/19 09:21:16;;;;;;;40.30;35.33;;;21.30;99.90;;;;;;4977653;28;20256;-68
2022/05/19 09:23:42;;;;;;;41.45;34.47;;;21.50;99.90;;;;;;4962523;28;20041;-68
2022/05/19 09:26:27;;;;;;;46.78;37.95;;;21.60;99.90;;;;;;4993784;28;20421;-69
2022/05/19 09:29:08;;;;;;;54.10;43.08;;;21.60;99.90;;;;;;4994047;28;20382;-71
2022/05/19 09:31:41;;;;;;;70.07;52.55;;;21.80;99.90;;;;;;4977387;28;20457;-70
2022/05/19 09:34:09;;;;;;;69.88;60.75;;;21.90;99.90;;;;;;5010655;28;20478;-68
2022/05/19 09:36:41;;;;;;;79.82;69.15;;;22.00;99.90;;;;;;4975412;28;20049;-69
2022/05/19 09:39:15;;;;;;;72.40;64.55;;;22.10;99.90;;;;;;4974603;28;20042;-69
2022/05/19 09:41:48;;;;;;;71.28;61.95;;;22.10;99.90;;;;;;4991275;28;20050;-69
2022/05/19 09:44:25;;;;;;;51.03;44.20;;;22.30;99.90;;;;;;4991768;28;20045;-70
2022/05/19 09:46:51;;;;;;;45.10;35.22;;;22.40;99.90;;;;;;4982653;28;20066;-68
2022/05/19 09:49:30;;;;;;;41.00;33.17;;;22.40;99.90;;;;;;4975305;28;20535;-68
2022/05/19 09:52:05;;;;;;;37.08;31.15;;;22.60;99.90;;;;;;4975348;28;20101;-69
2022/05/19 09:54:33;;;;;;;33.50;29.10;;;22.80;99.90;;;;;;4983259;28;20483;-69
2022/05/19 09:57:11;;;;;;;35.75;29.38;;;22.90;99.90;;;;;;4991772;28;20050;-69
2022/05/19 09:59:45;;;;;;;33.13;29.17;;;23.10;99.90;;;;;;4959004;28;20078;-69
2022/05/19 10:02:23;;;;;;;31.25;26.65;;;23.40;99.90;;;;;;4975258;28;20038;-69
2022/05/19 10:04:57;;;;;;;30.15;26.02;;;23.60;99.90;;;;;;4974822;28;20046;-70
2022/05/19 10:07:35;;;;;;;35.10;27.45;;;23.80;99.90;;;;;;4974545;28;20597;-68
2022/05/19 10:10:01;;;;;;;34.08;27.52;;;23.80;99.90;;;;;;4958759;28;20069;-69
2022/05/19 10:12:31;;;;;;;32.05;27.42;;;24.00;99.90;;;;;;4975218;28;20467;-69
2022/05/19 10:15:11;;;;;;;31.25;26.40;;;24.00;99.90;;;;;;4987630;28;20046;-69
2022/05/19 10:18:01;;;;;;;29.67;23.05;;;24.10;99.90;;;;;;4974315;28;20050;-69
2022/05/19 10:20:32;;;;;;;25.20;21.73;;;24.10;99.90;;;;;;4959108;28;20057;-69
2022/05/19 10:23:10;;;;;;;25.10;22.40;;;24.20;99.90;;;;;;4958981;28;20368;-69
2022/05/19 10:25:49;;;;;;;28.00;23.33;;;24.10;99.90;;;;;;4974850;28;20391;-69
2022/05/19 10:32:18;;;;;;;22.45;20.15;;;24.30;99.90;;;;;;4936387;28;20054;-69
2022/05/19 10:35:10;;;;;;;29.08;22.58;;;24.40;99.90;;;;;;4978651;28;20073;-69
2022/05/19 10:38:14;;;;;;;21.40;19.08;;;24.50;99.90;;;;;;4977797;28;20045;-71
2022/05/19 10:41:34;;;;;;;17.80;15.95;;;24.40;99.90;;;;;;4977897;28;20057;-69
2022/05/19 10:44:08;;;;;;;22.63;20.25;;;24.40;99.90;;;;;;4991440;28;20398;-69
2022/05/19 10:46:57;;;;;;;27.13;23.73;;;24.30;99.90;;;;;;4961854;28;20133;-69
2022/05/19 10:49:45;;;;;;;24.80;21.10;;;24.10;99.90;;;;;;4977963;28;20402;-71
2022/05/19 10:52:31;;;;;;;25.42;21.92;;;24.00;99.90;;;;;;4977868;28;20046;-68
2022/05/19 10:55:08;;;;;;;27.77;23.30;;;23.80;99.90;;;;;;4978109;28;20074;-69
2022/05/19 10:58:10;;;;;;;27.50;22.95;;;23.80;99.90;;;;;;4996795;28;20053;-69
2022/05/19 11:00:35;;;;;;;;;;;23.80;99.90;;;;;;4978586;28;20085;-69
2022/05/19 11:03:23;;;;;;;26.85;22.13;;;23.90;99.90;;;;;;4989315;28;20015;-69
2022/05/19 11:06:36;;;;;;;27.23;22.05;;;24.00;99.90;;;;;;4989725;28;20069;-68
2022/05/19 11:09:23;;;;;;;28.20;23.88;;;24.30;99.90;;;;;;4918645;29;20408;-69
2022/05/19 11:12:01;;;;;;;26.45;23.67;;;24.60;99.90;;;;;;4918921;29;20094;-69
2022/05/19 11:14:48;;;;;;;26.95;23.52;;;25.00;99.90;;;;;;4942823;28;20540;-68
2022/05/19 11:17:40;;;;;;;26.83;23.98;;;25.60;99.90;;;;;;4977322;28;20646;-69
2022/05/19 11:20:12;;;;;;;25.75;22.02;;;26.00;99.90;;;;;;4978051;28;20050;-69
2022/05/19 11:22:40;;;;;;;27.83;23.85;;;26.50;99.90;;;;;;4977432;28;20042;-69
2022/05/19 11:28:38;;;;;;;23.95;21.50;;;27.00;99.90;;;;;;4976784;28;20053;-69
2022/05/19 11:31:16;;;;;;;24.13;21.48;;;27.30;99.90;;;;;;4964937;28;20395;-69
2022/05/19 11:33:49;;;;;;;25.40;22.70;;;27.40;99.90;;;;;;4987744;28;20419;-70
2022/05/19 11:36:22;;;;;;;26.35;22.70;;;27.50;99.90;;;;;;4978675;28;20042;-69
2022/05/19 11:38:56;;;;;;;24.88;22.27;;;27.80;99.90;;;;;;4976917;28;20049;-69
2022/05/19 11:41:26;;;;;;;25.52;22.88;;;28.10;99.90;;;;;;4989605;28;20050;-69
2022/05/19 11:44:12;;;;;;;26.45;22.67;;;28.10;99.90;;;;;;4990403;28;20049;-72
2022/05/19 11:46:53;;;;;;;25.85;22.98;;;28.20;99.90;;;;;;4976386;28;20038;-70
2022/05/19 11:55:25;;;;;;;26.17;23.33;;;27.60;99.90;;;;;;4976502;28;20062;-71
2022/05/19 11:58:24;;;;;;;26.55;23.80;;;27.60;99.90;;;;;;4992740;28;20039;-69
2022/05/19 12:00:52;;;;;;;25.20;22.70;;;27.70;99.90;;;;;;4945432;28;20072;-70
2022/05/19 12:03:30;;;;;;;24.58;21.98;;;27.80;99.90;;;;;;4976856;28;20050;-70
2022/05/19 12:06:12;;;;;;;23.27;20.85;;;28.00;99.90;;;;;;4985424;28;20497;-70
2022/05/19 12:08:53;;;;;;;23.25;20.75;;;28.40;99.90;;;;;;4978619;28;20046;-70
2022/05/19 12:11:40;;;;;;;21.83;19.50;;;28.80;99.90;;;;;;4976753;28;20391;-69
2022/05/19 12:14:18;;;;;;;20.25;18.15;;;28.90;99.90;;;;;;4976694;28;20038;-70
2022/05/19 12:17:01;;;;;;;17.63;14.45;;;29.00;99.90;;;;;;4993124;28;20046;-70
2022/05/19 12:19:33;;;;;;;16.48;13.75;;;28.90;96.10;;;;;;4976308;28;20038;-69
2022/05/19 12:22:01;;;;;;;13.95;11.95;;;28.70;99.90;;;;;;4976645;28;20080;-69
2022/05/19 12:24:34;;;;;;;17.45;14.30;;;28.20;99.90;;;;;;4976234;28;20534;-69
2022/05/19 12:27:12;;;;;;;14.30;12.82;;;28.20;94.80;;;;;;4976314;28;20050;-70
2022/05/19 12:29:43;;;;;;;14.65;12.85;;;28.00;99.90;;;;;;4976982;28;20084;-70
2022/05/19 12:32:34;;;;;;;17.08;13.18;;;28.00;99.90;;;;;;4976383;28;20046;-70
2022/05/19 12:35:15;;;;;;;15.90;14.20;;;27.90;99.90;;;;;;4967306;28;20092;-69
2022/05/19 12:37:48;;;;;;;15.43;12.82;;;27.70;99.90;;;;;;4979288;28;20502;-69
2022/05/19 12:40:55;;;;;;;11.75;9.18;;;27.50;99.90;;;;;;4986080;28;20128;-70
2022/05/19 12:43:21;;;;;;;11.38;10.10;;;27.30;99.90;;;;;;4986064;28;20177;-70
2022/05/19 12:45:57;;;;;;;11.93;9.77;;;27.10;99.90;;;;;;4992732;28;20520;-69
2022/05/19 12:48:25;;;;;;;11.48;10.30;;;27.00;99.90;;;;;;4975522;28;20038;-71
2022/05/19 12:51:27;;;;;;;12.13;10.85;;;26.90;99.90;;;;;;4989820;28;20494;-69
2022/05/19 12:53:56;;;;;;;13.00;11.43;;;26.50;99.90;;;;;;4970379;28;20395;-69
2022/05/19 12:56:40;;;;;;;12.80;11.13;;;26.30;99.90;;;;;;4976092;28;20056;-70
2022/05/19 12:59:10;;;;;;;12.15;10.95;;;26.20;99.90;;;;;;4975872;28;20092;-71
2022/05/19 13:01:47;;;;;;;14.88;10.93;;;26.10;99.90;;;;;;4959843;28;20050;-69
2022/05/19 13:04:36;;;;;;;13.80;11.73;;;25.90;99.90;;;;;;4995308;28;20061;-70
2022/05/19 13:07:19;;;;;;;13.75;10.88;;;25.80;99.90;;;;;;4978577;28;20053;-71
2022/05/19 13:10:17;;;;;;;15.07;13.52;;;25.70;99.90;;;;;;4982057;28;20050;-69
2022/05/19 13:13:04;;;;;;;17.00;14.63;;;25.50;99.90;;;;;;4983366;28;20050;-69